sensor_id;sensor_type;location;lat;lon;timestamp;temperature;humidity
16907;DHT22;8570;52.380;4.654;2022-07-24T00:00:20;20.20;99.70
16907;DHT22;8570;52.380;4.654;2022-07-24T00:05:22;20.10;99.90
16907;DHT22;8570;52.380;4.654;2022-07-24T00:10:26;20.00;99.90
16907;DHT22;8570;52.380;4.654;2022-07-24T00:15:28;19.90;99.90
16907;DHT22;8570;52.380;4.654;2022-07-24T00:20:31;19.80;99.90
16907;DHT22;8570;52.380;4.654;2022-07-24T00:25:34;19.70;99.90
16907;DHT22;8570;52.380;4.654;2022-07-24T00:30:36;19.70;99.90
16907;DHT22;8570;52.380;4.654;2022-07-24T00:35:38;19.60;99.90
16907;DHT22;8570;52.380;4.654;2022-07-24T00:40:42;19.60;99.90
16907;DHT22;8570;52.380;4.654;2022-07-24T00:45:44;19.60;99.90
16907;DHT22;8570;52.380;4.654;2022-07-24T00:50:46;19.50;99.90
16907;DHT22;8570;52.380;4.654;2022-07-24T00:55:49;19.50;99.90
16907;DHT22;8570;52.380;4.654;2022-07-24T01:00:51;19.50;99.90
16907;DHT22;8570;52.380;4.654;2022-07-24T01:05:55;19.40;99.90
16907;DHT22;8570;52.380;4.654;2022-07-24T01:10:58;19.40;99.90
16907;DHT22;8570;52.380;4.654;2022-07-24T01:16:00;19.30;99.90
16907;DHT22;8570;52.380;4.654;2022-07-24T01:21:04;19.30;99.90
16907;DHT22;8570;52.380;4.654;2022-07-24T01:26:07;19.20;99.90
16907;DHT22;8570;52.380;4.654;2022-07-24T01:31:09;19.20;99.90
16907;DHT22;8570;52.380;4.654;2022-07-24T01:36:12;19.20;99.90
16907;DHT22;8570;52.380;4.654;2022-07-24T01:41:15;19.10;99.90
16907;DHT22;8570;52.380;4.654;2022-07-24T01:46:17;19.10;99.90
16907;DHT22;8570;52.380;4.654;2022-07-24T01:51:20;19.10;99.90
16907;DHT22;8570;52.380;4.654;2022-07-24T01:56:22;19.00;99.90
16907;DHT22;8570;52.380;4.654;2022-07-24T02:01:24;19.00;99.90
16907;DHT22;8570;52.380;4.654;2022-07-24T02:06:28;19.00;99.90
16907;DHT22;8570;52.380;4.654;2022-07-24T02:11:30;19.00;99.90
16907;DHT22;8570;52.380;4.654;2022-07-24T02:16:32;18.90;99.90
16907;DHT22;8570;52.380;4.654;2022-07-24T02:21:35;18.90;99.90
16907;DHT22;8570;52.380;4.654;2022-07-24T02:26:37;18.90;99.90
16907;DHT22;8570;52.380;4.654;2022-07-24T02:31:39;18.90;99.90
16907;DHT22;8570;52.380;4.654;2022-07-24T02:36:42;18.90;99.90
16907;DHT22;8570;52.380;4.654;2022-07-24T02:41:44;18.80;99.90
16907;DHT22;8570;52.380;4.654;2022-07-24T02:46:46;18.80;99.90
16907;DHT22;8570;52.380;4.654;2022-07-24T02:51:49;18.80;99.90
16907;DHT22;8570;52.380;4.654;2022-07-24T02:56:51;18.80;99.90
16907;DHT22;8570;52.380;4.654;2022-07-24T03:01:52;18.70;99.90
16907;DHT22;8570;52.380;4.654;2022-07-24T03:06:56;18.70;99.90
16907;DHT22;8570;52.380;4.654;2022-07-24T03:11:58;18.60;99.90
16907;DHT22;8570;52.380;4.654;2022-07-24T03:16:59;18.60;99.90
16907;DHT22;8570;52.380;4.654;2022-07-24T03:22:03;18.50;99.90
16907;DHT22;8570;52.380;4.654;2022-07-24T03:27:05;18.60;99.90
16907;DHT22;8570;52.380;4.654;2022-07-24T03:32:07;18.50;99.90
16907;DHT22;8570;52.380;4.654;2022-07-24T03:37:10;18.50;99.90
16907;DHT22;8570;52.380;4.654;2022-07-24T03:42:12;18.40;99.90
16907;DHT22;8570;52.380;4.654;2022-07-24T03:47:13;18.40;99.90
16907;DHT22;8570;52.380;4.654;2022-07-24T03:52:17;18.30;99.90
16907;DHT22;8570;52.380;4.654;2022-07-24T03:57:19;18.30;99.90
16907;DHT22;8570;52.380;4.654;2022-07-24T04:02:20;18.20;99.90
16907;DHT22;8570;52.380;4.654;2022-07-24T04:07:24;18.20;99.90
16907;DHT22;8570;52.380;4.654;2022-07-24T04:12:26;18.20;99.90
16907;DHT22;8570;52.380;4.654;2022-07-24T04:17:27;18.10;99.90
16907;DHT22;8570;52.380;4.654;2022-07-24T04:22:32;18.00;99.90
16907;DHT22;8570;52.380;4.654;2022-07-24T04:27:34;18.00;99.90
16907;DHT22;8570;52.380;4.654;2022-07-24T04:32:36;18.00;99.90
16907;DHT22;8570;52.380;4.654;2022-07-24T04:37:40;18.00;99.90
16907;DHT22;8570;52.380;4.654;2022-07-24T04:42:42;18.00;99.90
16907;DHT22;8570;52.380;4.654;2022-07-24T04:47:43;18.00;99.90
16907;DHT22;8570;52.380;4.654;2022-07-24T04:52:47;18.00;99.90
16907;DHT22;8570;52.380;4.654;2022-07-24T04:57:48;18.00;99.90
16907;DHT22;8570;52.380;4.654;2022-07-24T05:02:50;18.00;99.90
16907;DHT22;8570;52.380;4.654;2022-07-24T05:07:54;18.00;99.90
16907;DHT22;8570;52.380;4.654;2022-07-24T05:12:56;18.10;99.90
16907;DHT22;8570;52.380;4.654;2022-07-24T05:17:57;18.10;99.90
16907;DHT22;8570;52.380;4.654;2022-07-24T05:23:01;18.20;99.90
16907;DHT22;8570;52.380;4.654;2022-07-24T05:28:03;18.20;99.90
16907;DHT22;8570;52.380;4.654;2022-07-24T05:33:05;18.20;99.90
16907;DHT22;8570;52.380;4.654;2022-07-24T05:38:08;18.20;99.90
16907;DHT22;8570;52.380;4.654;2022-07-24T05:43:10;18.30;99.90
16907;DHT22;8570;52.380;4.654;2022-07-24T05:48:12;18.40;99.90
16907;DHT22;8570;52.380;4.654;2022-07-24T05:53:16;18.50;99.90
16907;DHT22;8570;52.380;4.654;2022-07-24T05:58:18;18.80;99.90
16907;DHT22;8570;52.380;4.654;2022-07-24T06:03:19;18.90;99.90
16907;DHT22;8570;52.380;4.654;2022-07-24T06:08:23;19.10;99.90
16907;DHT22;8570;52.380;4.654;2022-07-24T06:13:25;19.20;99.90
16907;DHT22;8570;52.380;4.654;2022-07-24T06:18:27;19.40;99.90
16907;DHT22;8570;52.380;4.654;2022-07-24T06:23:30;19.50;99.90
16907;DHT22;8570;52.380;4.654;2022-07-24T06:28:33;19.60;99.90
16907;DHT22;8570;52.380;4.654;2022-07-24T06:33:35;19.80;99.90
16907;DHT22;8570;52.380;4.654;2022-07-24T06:38:38;19.90;99.90
16907;DHT22;8570;52.380;4.654;2022-07-24T06:43:40;20.00;99.90
16907;DHT22;8570;52.380;4.654;2022-07-24T06:48:42;20.10;99.90
16907;DHT22;8570;52.380;4.654;2022-07-24T06:53:45;20.10;99.90
16907;DHT22;8570;52.380;4.654;2022-07-24T06:58:47;20.20;99.90
16907;DHT22;8570;52.380;4.654;2022-07-24T07:03:49;20.20;99.90
16907;DHT22;8570;52.380;4.654;2022-07-24T07:08:52;20.40;99.90
16907;DHT22;8570;52.380;4.654;2022-07-24T07:13:54;20.50;99.90
16907;DHT22;8570;52.380;4.654;2022-07-24T07:18:56;20.70;99.90
16907;DHT22;8570;52.380;4.654;2022-07-24T07:23:59;20.90;99.90
16907;DHT22;8570;52.380;4.654;2022-07-24T07:29:01;21.00;99.90
16907;DHT22;8570;52.380;4.654;2022-07-24T07:34:03;21.10;99.90
16907;DHT22;8570;52.380;4.654;2022-07-24T07:39:06;21.20;99.90
16907;DHT22;8570;52.380;4.654;2022-07-24T07:44:08;21.20;99.90
16907;DHT22;8570;52.380;4.654;2022-07-24T07:49:10;21.30;99.90
16907;DHT22;8570;52.380;4.654;2022-07-24T07:54:13;21.40;99.90
16907;DHT22;8570;52.380;4.654;2022-07-24T07:59:15;21.50;99.90
16907;DHT22;8570;52.380;4.654;2022-07-24T08:04:18;21.70;99.90
16907;DHT22;8570;52.380;4.654;2022-07-24T08:09:21;21.90;99.90
16907;DHT22;8570;52.380;4.654;2022-07-24T08:14:23;22.10;99.90
16907;DHT22;8570;52.380;4.654;2022-07-24T08:19:25;22.30;99.90
16907;DHT22;8570;52.380;4.654;2022-07-24T08:24:28;22.50;99.90
16907;DHT22;8570;52.380;4.654;2022-07-24T08:29:32;22.80;99.90
16907;DHT22;8570;52.380;4.654;2022-07-24T08:34:34;22.90;99.90
16907;DHT22;8570;52.380;4.654;2022-07-24T08:39:37;23.20;99.90
16907;DHT22;8570;52.380;4.654;2022-07-24T08:44:39;23.50;99.90
16907;DHT22;8570;52.380;4.654;2022-07-24T08:49:44;23.80;99.40
16907;DHT22;8570;52.380;4.654;2022-07-24T08:54:47;24.00;99.00
16907;DHT22;8570;52.380;4.654;2022-07-24T09:00:06;24.00;98.70
16907;DHT22;8570;52.380;4.654;2022-07-24T09:05:09;24.20;99.00
16907;DHT22;8570;52.380;4.654;2022-07-24T09:10:14;24.50;98.50
16907;DHT22;8570;52.380;4.654;2022-07-24T09:15:19;24.80;97.80
16907;DHT22;8570;52.380;4.654;2022-07-24T09:20:22;25.10;97.40
16907;DHT22;8570;52.380;4.654;2022-07-24T09:25:27;25.40;96.50
16907;DHT22;8570;52.380;4.654;2022-07-24T09:30:30;25.50;96.50
16907;DHT22;8570;52.380;4.654;2022-07-24T09:35:34;25.80;96.40
16907;DHT22;8570;52.380;4.654;2022-07-24T09:40:41;26.10;95.50
16907;DHT22;8570;52.380;4.654;2022-07-24T09:45:55;26.30;95.10
16907;DHT22;8570;52.380;4.654;2022-07-24T09:50:59;26.50;94.70
16907;DHT22;8570;52.380;4.654;2022-07-24T09:56:05;26.70;94.20
16907;DHT22;8570;52.380;4.654;2022-07-24T10:01:08;26.70;94.00
16907;DHT22;8570;52.380;4.654;2022-07-24T10:06:12;26.80;93.40
16907;DHT22;8570;52.380;4.654;2022-07-24T10:11:16;26.90;93.20
16907;DHT22;8570;52.380;4.654;2022-07-24T10:16:33;27.00;92.80
16907;DHT22;8570;52.380;4.654;2022-07-24T10:21:37;26.90;92.80
16907;DHT22;8570;52.380;4.654;2022-07-24T10:26:44;26.90;93.00
16907;DHT22;8570;52.380;4.654;2022-07-24T10:31:50;27.00;92.80
16907;DHT22;8570;52.380;4.654;2022-07-24T10:36:57;27.20;92.60
16907;DHT22;8570;52.380;4.654;2022-07-24T10:42:04;27.30;91.80
16907;DHT22;8570;52.380;4.654;2022-07-24T10:47:08;27.40;91.40
16907;DHT22;8570;52.380;4.654;2022-07-24T10:52:22;27.50;91.50
16907;DHT22;8570;52.380;4.654;2022-07-24T10:57:46;27.60;91.20
16907;DHT22;8570;52.380;4.654;2022-07-24T11:02:55;27.70;91.30
16907;DHT22;8570;52.380;4.654;2022-07-24T11:08:26;27.90;90.70
16907;DHT22;8570;52.380;4.654;2022-07-24T11:13:50;28.00;90.20
16907;DHT22;8570;52.380;4.654;2022-07-24T11:24:41;28.20;89.40
16907;DHT22;8570;52.380;4.654;2022-07-24T11:29:45;28.40;89.30
16907;DHT22;8570;52.380;4.654;2022-07-24T11:34:48;28.50;88.60
16907;DHT22;8570;52.380;4.654;2022-07-24T11:39:51;28.50;87.60
16907;DHT22;8570;52.380;4.654;2022-07-24T11:44:54;28.50;88.30
16907;DHT22;8570;52.380;4.654;2022-07-24T11:49:57;28.40;87.50
16907;DHT22;8570;52.380;4.654;2022-07-24T11:55:02;28.50;88.80
16907;DHT22;8570;52.380;4.654;2022-07-24T12:00:08;28.70;89.30
16907;DHT22;8570;52.380;4.654;2022-07-24T12:05:12;28.90;86.70
16907;DHT22;8570;52.380;4.654;2022-07-24T12:10:18;29.00;86.20
16907;DHT22;8570;52.380;4.654;2022-07-24T12:15:23;29.00;86.30
16907;DHT22;8570;52.380;4.654;2022-07-24T12:20:28;29.00;86.80
16907;DHT22;8570;52.380;4.654;2022-07-24T12:25:30;29.10;87.70
16907;DHT22;8570;52.380;4.654;2022-07-24T12:30:35;29.20;86.80
16907;DHT22;8570;52.380;4.654;2022-07-24T12:35:52;29.40;86.60
16907;DHT22;8570;52.380;4.654;2022-07-24T12:41:02;29.50;86.10
16907;DHT22;8570;52.380;4.654;2022-07-24T12:46:07;29.60;86.70
16907;DHT22;8570;52.380;4.654;2022-07-24T12:51:11;29.80;85.90
16907;DHT22;8570;52.380;4.654;2022-07-24T12:56:15;29.90;85.80
16907;DHT22;8570;52.380;4.654;2022-07-24T13:01:19;30.10;85.50
16907;DHT22;8570;52.380;4.654;2022-07-24T13:06:38;30.30;85.50
16907;DHT22;8570;52.380;4.654;2022-07-24T13:11:42;30.50;83.70
16907;DHT22;8570;52.380;4.654;2022-07-24T13:16:47;30.60;82.90
16907;DHT22;8570;52.380;4.654;2022-07-24T13:21:49;30.60;82.10
16907;DHT22;8570;52.380;4.654;2022-07-24T13:26:51;30.60;81.90
16907;DHT22;8570;52.380;4.654;2022-07-24T13:31:55;30.70;82.60
16907;DHT22;8570;52.380;4.654;2022-07-24T13:36:57;30.90;82.40
16907;DHT22;8570;52.380;4.654;2022-07-24T13:41:59;30.90;82.50
16907;DHT22;8570;52.380;4.654;2022-07-24T13:47:02;30.80;82.50
16907;DHT22;8570;52.380;4.654;2022-07-24T13:52:05;30.90;82.00
16907;DHT22;8570;52.380;4.654;2022-07-24T13:57:07;30.80;81.40
16907;DHT22;8570;52.380;4.654;2022-07-24T14:02:10;30.80;81.00
16907;DHT22;8570;52.380;4.654;2022-07-24T14:07:12;30.90;82.20
16907;DHT22;8570;52.380;4.654;2022-07-24T14:12:14;30.90;80.80
16907;DHT22;8570;52.380;4.654;2022-07-24T14:17:17;30.90;80.60
16907;DHT22;8570;52.380;4.654;2022-07-24T14:22:19;30.70;79.80
16907;DHT22;8570;52.380;4.654;2022-07-24T14:27:21;30.60;80.40
16907;DHT22;8570;52.380;4.654;2022-07-24T14:32:24;30.60;81.90
16907;DHT22;8570;52.380;4.654;2022-07-24T14:37:26;30.60;81.00
16907;DHT22;8570;52.380;4.654;2022-07-24T14:42:28;30.60;80.30
16907;DHT22;8570;52.380;4.654;2022-07-24T14:47:31;30.50;80.60
16907;DHT22;8570;52.380;4.654;2022-07-24T14:52:35;30.60;81.60
16907;DHT22;8570;52.380;4.654;2022-07-24T14:57:37;30.70;81.20
16907;DHT22;8570;52.380;4.654;2022-07-24T15:02:40;30.70;81.40
16907;DHT22;8570;52.380;4.654;2022-07-24T15:07:42;30.70;82.00
16907;DHT22;8570;52.380;4.654;2022-07-24T15:12:44;30.70;81.50
16907;DHT22;8570;52.380;4.654;2022-07-24T15:17:47;30.60;81.50
16907;DHT22;8570;52.380;4.654;2022-07-24T15:22:49;30.60;81.90
16907;DHT22;8570;52.380;4.654;2022-07-24T15:27:51;30.40;81.60
16907;DHT22;8570;52.380;4.654;2022-07-24T15:32:55;30.50;81.50
16907;DHT22;8570;52.380;4.654;2022-07-24T15:37:57;30.40;82.20
16907;DHT22;8570;52.380;4.654;2022-07-24T15:43:00;30.50;81.90
16907;DHT22;8570;52.380;4.654;2022-07-24T15:48:04;30.50;81.30
16907;DHT22;8570;52.380;4.654;2022-07-24T15:53:06;30.60;81.50
16907;DHT22;8570;52.380;4.654;2022-07-24T15:58:08;30.50;81.60
16907;DHT22;8570;52.380;4.654;2022-07-24T16:03:12;30.70;82.40
16907;DHT22;8570;52.380;4.654;2022-07-24T16:08:14;30.90;82.90
16907;DHT22;8570;52.380;4.654;2022-07-24T16:13:16;30.90;81.80
16907;DHT22;8570;52.380;4.654;2022-07-24T16:18:20;31.00;82.10
16907;DHT22;8570;52.380;4.654;2022-07-24T16:23:22;31.00;81.30
16907;DHT22;8570;52.380;4.654;2022-07-24T16:28:24;31.10;81.40
16907;DHT22;8570;52.380;4.654;2022-07-24T16:33:27;31.10;80.90
16907;DHT22;8570;52.380;4.654;2022-07-24T16:38:29;31.00;80.90
16907;DHT22;8570;52.380;4.654;2022-07-24T16:43:31;31.00;80.80
16907;DHT22;8570;52.380;4.654;2022-07-24T16:48:35;30.90;80.30
16907;DHT22;8570;52.380;4.654;2022-07-24T16:53:37;30.70;80.30
16907;DHT22;8570;52.380;4.654;2022-07-24T16:58:39;30.50;80.30
16907;DHT22;8570;52.380;4.654;2022-07-24T17:03:43;30.20;80.00
16907;DHT22;8570;52.380;4.654;2022-07-24T17:08:46;29.80;81.10
16907;DHT22;8570;52.380;4.654;2022-07-24T17:13:51;29.40;82.20
16907;DHT22;8570;52.380;4.654;2022-07-24T17:18:56;29.20;83.20
16907;DHT22;8570;52.380;4.654;2022-07-24T17:24:00;28.90;83.20
16907;DHT22;8570;52.380;4.654;2022-07-24T17:29:02;28.60;83.10
16907;DHT22;8570;52.380;4.654;2022-07-24T17:34:05;28.30;83.80
16907;DHT22;8570;52.380;4.654;2022-07-24T17:39:07;28.10;84.80
16907;DHT22;8570;52.380;4.654;2022-07-24T17:44:09;28.00;85.10
16907;DHT22;8570;52.380;4.654;2022-07-24T17:49:14;27.80;85.00
16907;DHT22;8570;52.380;4.654;2022-07-24T17:54:16;27.60;85.60
16907;DHT22;8570;52.380;4.654;2022-07-24T17:59:18;27.40;85.50
16907;DHT22;8570;52.380;4.654;2022-07-24T18:04:21;27.20;85.50
16907;DHT22;8570;52.380;4.654;2022-07-24T18:09:23;27.00;85.70
16907;DHT22;8570;52.380;4.654;2022-07-24T18:14:25;26.90;86.00
16907;DHT22;8570;52.380;4.654;2022-07-24T18:19:32;26.80;85.40
16907;DHT22;8570;52.380;4.654;2022-07-24T18:24:34;26.70;85.30
16907;DHT22;8570;52.380;4.654;2022-07-24T18:29:35;26.60;86.10
16907;DHT22;8570;52.380;4.654;2022-07-24T18:34:39;26.50;86.00
16907;DHT22;8570;52.380;4.654;2022-07-24T18:39:41;26.50;86.60
16907;DHT22;8570;52.380;4.654;2022-07-24T18:44:42;26.50;86.80
16907;DHT22;8570;52.380;4.654;2022-07-24T18:49:48;26.50;86.70
16907;DHT22;8570;52.380;4.654;2022-07-24T18:54:50;26.60;87.40
16907;DHT22;8570;52.380;4.654;2022-07-24T18:59:52;26.50;86.90
16907;DHT22;8570;52.380;4.654;2022-07-24T19:04:57;26.50;86.90
16907;DHT22;8570;52.380;4.654;2022-07-24T19:09:59;26.50;86.60
16907;DHT22;8570;52.380;4.654;2022-07-24T19:15:02;26.40;86.90
16907;DHT22;8570;52.380;4.654;2022-07-24T19:20:08;26.20;86.70
16907;DHT22;8570;52.380;4.654;2022-07-24T19:25:10;26.20;86.00
16907;DHT22;8570;52.380;4.654;2022-07-24T19:30:12;26.10;85.40
16907;DHT22;8570;52.380;4.654;2022-07-24T19:35:16;26.00;85.30
16907;DHT22;8570;52.380;4.654;2022-07-24T19:40:18;26.00;85.30
16907;DHT22;8570;52.380;4.654;2022-07-24T19:45:20;25.90;85.30
16907;DHT22;8570;52.380;4.654;2022-07-24T19:50:23;25.90;85.60
16907;DHT22;8570;52.380;4.654;2022-07-24T19:55:25;25.80;85.00
16907;DHT22;8570;52.380;4.654;2022-07-24T20:00:27;25.80;84.90
16907;DHT22;8570;52.380;4.654;2022-07-24T20:05:30;25.80;85.00
16907;DHT22;8570;52.380;4.654;2022-07-24T20:10:34;25.70;84.90
16907;DHT22;8570;52.380;4.654;2022-07-24T20:15:36;25.70;85.30
16907;DHT22;8570;52.380;4.654;2022-07-24T20:20:40;25.70;85.00
16907;DHT22;8570;52.380;4.654;2022-07-24T20:25:41;25.50;85.60
16907;DHT22;8570;52.380;4.654;2022-07-24T20:30:44;25.50;85.80
16907;DHT22;8570;52.380;4.654;2022-07-24T20:35:48;25.40;85.80
16907;DHT22;8570;52.380;4.654;2022-07-24T20:40:50;25.40;85.70
16907;DHT22;8570;52.380;4.654;2022-07-24T20:45:52;25.40;86.00
16907;DHT22;8570;52.380;4.654;2022-07-24T20:50:56;25.30;86.20
16907;DHT22;8570;52.380;4.654;2022-07-24T20:55:58;25.30;86.50
16907;DHT22;8570;52.380;4.654;2022-07-24T21:01:00;25.30;86.20
16907;DHT22;8570;52.380;4.654;2022-07-24T21:06:03;25.30;86.40
16907;DHT22;8570;52.380;4.654;2022-07-24T21:11:05;25.30;86.80
16907;DHT22;8570;52.380;4.654;2022-07-24T21:16:07;25.20;86.90
16907;DHT22;8570;52.380;4.654;2022-07-24T21:21:10;25.30;87.30
16907;DHT22;8570;52.380;4.654;2022-07-24T21:26:13;25.20;87.40
16907;DHT22;8570;52.380;4.654;2022-07-24T21:31:14;25.20;87.80
16907;DHT22;8570;52.380;4.654;2022-07-24T21:36:18;25.20;88.80
16907;DHT22;8570;52.380;4.654;2022-07-24T21:41:19;25.10;89.40
16907;DHT22;8570;52.380;4.654;2022-07-24T21:46:22;25.10;89.10
16907;DHT22;8570;52.380;4.654;2022-07-24T21:51:25;25.10;89.90
16907;DHT22;8570;52.380;4.654;2022-07-24T21:56:27;25.10;89.50
16907;DHT22;8570;52.380;4.654;2022-07-24T22:01:29;25.10;89.80
16907;DHT22;8570;52.380;4.654;2022-07-24T22:06:32;25.10;89.80
16907;DHT22;8570;52.380;4.654;2022-07-24T22:11:34;25.00;89.30
16907;DHT22;8570;52.380;4.654;2022-07-24T22:16:36;25.00;89.80
16907;DHT22;8570;52.380;4.654;2022-07-24T22:21:39;24.90;89.80
16907;DHT22;8570;52.380;4.654;2022-07-24T22:26:41;24.90;89.60
16907;DHT22;8570;52.380;4.654;2022-07-24T22:31:43;24.80;89.90
16907;DHT22;8570;52.380;4.654;2022-07-24T22:36:48;24.80;90.30
16907;DHT22;8570;52.380;4.654;2022-07-24T22:41:51;24.80;90.30
16907;DHT22;8570;52.380;4.654;2022-07-24T22:46:53;24.70;90.70
16907;DHT22;8570;52.380;4.654;2022-07-24T22:51:57;24.70;90.50
16907;DHT22;8570;52.380;4.654;2022-07-24T22:57:00;24.70;90.70
16907;DHT22;8570;52.380;4.654;2022-07-24T23:02:03;24.60;90.70
16907;DHT22;8570;52.380;4.654;2022-07-24T23:07:07;24.60;90.70
16907;DHT22;8570;52.380;4.654;2022-07-24T23:12:09;24.60;91.40
16907;DHT22;8570;52.380;4.654;2022-07-24T23:17:11;24.50;91.10
16907;DHT22;8570;52.380;4.654;2022-07-24T23:22:14;24.40;91.00
16907;DHT22;8570;52.380;4.654;2022-07-24T23:27:16;24.40;91.10
16907;DHT22;8570;52.380;4.654;2022-07-24T23:32:18;24.30;90.70
16907;DHT22;8570;52.380;4.654;2022-07-24T23:37:21;24.20;90.50
16907;DHT22;8570;52.380;4.654;2022-07-24T23:42:23;24.10;90.50
16907;DHT22;8570;52.380;4.654;2022-07-24T23:47:25;24.00;90.30
16907;DHT22;8570;52.380;4.654;2022-07-24T23:52:28;23.90;90.20
16907;DHT22;8570;52.380;4.654;2022-07-24T23:57:30;23.80;90.40
